Time;durP1;ratioP1;P1;durP2;ratioP2;P2;SDS_P1;SDS_P2;PMS_P1;PMS_P2;Temp;Humidity;BMP_temperature;BMP_pressure;BME280_temperature;BME280_humidity;BME280_pressure;Samples;Min_cycle;Max_cycle;Signal;HPM_P1;HPM_P2
2023/04/24 00:00:05;;;;;;;2.45;1.13;;;;;;;;;;5025306;28;20107;-74
2023/04/24 00:02:32;;;;;;;3.05;1.50;;;;;;;;;;5027291;28;20090;-72
2023/04/24 00:05:02;;;;;;;2.00;1.02;;;;;;;;;;5043253;28;20051;-74
2023/04/24 00:07:28;;;;;;;2.88;1.10;;;;;;;;;;5043573;28;20452;-74
2023/04/24 00:09:54;;;;;;;0.90;0.90;;;;;;;;;;5027594;28;20091;-74
2023/04/24 00:12:20;;;;;;;1.75;0.80;;;;;;;;;;5025898;28;20508;-73
2023/04/24 00:14:46;;;;;;;0.88;0.88;;;;;;;;;;5045158;28;20123;-73
2023/04/24 00:17:12;;;;;;;3.17;1.10;;;;;;;;;;5044118;28;20055;-73
2023/04/24 00:19:38;;;;;;;0.95;0.90;;;;;;;;;;5027011;28;20044;-73
2023/04/24 00:22:05;;;;;;;1.73;0.90;;;;;;;;;;5043535;28;20055;-72
2023/04/24 00:24:31;;;;;;;1.40;1.00;;;;;;;;;;5026296;28;20057;-72
2023/04/24 00:26:57;;;;;;;1.30;1.20;;;;;;;;;;5026768;28;20143;-72
2023/04/24 00:29:23;;;;;;;1.98;1.25;;;;;;;;;;5024853;28;20068;-73
2023/04/24 00:31:49;;;;;;;1.50;1.40;;;;;;;;;;5030106;28;20111;-73
2023/04/24 00:34:15;;;;;;;3.25;1.63;;;;;;;;;;5047161;28;20037;-73
2023/04/24 00:36:41;;;;;;;4.13;1.80;;;;;;;;;;5030714;28;20053;-73
2023/04/24 00:39:10;;;;;;;2.10;2.00;;;;;;;;;;5047784;28;20045;-74
2023/04/24 00:41:36;;;;;;;2.38;2.17;;;;;;;;;;5048808;28;20037;-74
2023/04/24 00:44:02;;;;;;;3.05;2.17;;;;;;;;;;5030232;28;20128;-75
2023/04/24 00:46:28;;;;;;;2.55;2.35;;;;;;;;;;5030123;28;20090;-73
2023/04/24 00:48:54;;;;;;;2.53;2.33;;;;;;;;;;5030082;28;20063;-74
2023/04/24 00:51:20;;;;;;;2.40;2.20;;;;;;;;;;5046386;28;20103;-73
2023/04/24 00:53:46;;;;;;;2.65;2.45;;;;;;;;;;5030530;28;20540;-73
2023/04/24 00:56:12;;;;;;;3.70;2.70;;;;;;;;;;5029587;28;20055;-73
2023/04/24 00:58:39;;;;;;;3.20;3.00;;;;;;;;;;5047827;28;20508;-74
2023/04/24 01:01:06;;;;;;;2.72;2.53;;;;;;;;;;5029923;28;20052;-73
2023/04/24 01:03:33;;;;;;;3.63;3.33;;;;;;;;;;5029990;28;20123;-73
2023/04/24 01:05:59;;;;;;;4.57;2.70;;;;;;;;;;5029988;28;20111;-73
2023/04/24 01:08:26;;;;;;;3.60;3.30;;;;;;;;;;5039814;28;20067;-73
2023/04/24 01:10:53;;;;;;;2.72;2.53;;;;;;;;;;5029730;28;20439;-74
2023/04/24 01:13:22;;;;;;;2.97;2.78;;;;;;;;;;5046499;28;20055;-73
2023/04/24 01:15:48;;;;;;;4.55;3.17;;;;;;;;;;5047699;28;20541;-73
2023/04/24 01:18:14;;;;;;;3.40;3.10;;;;;;;;;;5029261;28;20124;-73
2023/04/24 01:20:41;;;;;;;3.50;2.95;;;;;;;;;;5027930;28;20056;-74
2023/04/24 01:23:08;;;;;;;3.67;3.38;;;;;;;;;;5030216;28;20053;-73
2023/04/24 01:25:34;;;;;;;4.07;3.78;;;;;;;;;;5047002;28;20049;-73
2023/04/24 01:28:00;;;;;;;4.20;3.83;;;;;;;;;;5029784;28;20045;-73
2023/04/24 01:30:29;;;;;;;4.38;4.03;;;;;;;;;;5045473;28;20049;-72
2023/04/24 01:32:55;;;;;;;4.30;4.00;;;;;;;;;;5047954;28;20049;-72
2023/04/24 01:35:22;;;;;;;4.32;3.92;;;;;;;;;;5045962;28;20053;-74
2023/04/24 01:37:48;;;;;;;5.32;4.68;;;;;;;;;;5029823;28;20095;-73
2023/04/24 01:40:14;;;;;;;5.10;4.70;;;;;;;;;;5013524;28;20495;-73
2023/04/24 01:42:41;;;;;;;5.28;4.85;;;;;;;;;;5028146;28;20073;-75
2023/04/24 01:45:08;;;;;;;5.65;5.15;;;;;;;;;;5013448;28;20090;-74
2023/04/24 01:47:35;;;;;;;5.85;4.63;;;;;;;;;;5028001;28;20040;-74
2023/04/24 01:50:00;;;;;;;5.38;4.97;;;;;;;;;;5046186;28;20754;-74
2023/04/24 01:52:28;;;;;;;5.63;5.13;;;;;;;;;;5045496;28;20045;-74
2023/04/24 01:54:55;;;;;;;6.03;5.50;;;;;;;;;;5047098;28;20053;-74
2023/04/24 01:57:21;;;;;;;6.05;5.45;;;;;;;;;;5028364;28;20485;-74
2023/04/24 01:59:47;;;;;;;6.15;5.65;;;;;;;;;;5028229;28;20128;-74
2023/04/24 02:02:13;;;;;;;6.57;5.90;;;;;;;;;;5029394;28;20055;-72
2023/04/24 02:04:39;;;;;;;9.55;6.10;;;;;;;;;;5027742;28;20084;-73
2023/04/24 02:07:05;;;;;;;7.03;6.38;;;;;;;;;;5028528;28;20049;-74
2023/04/24 02:09:31;;;;;;;7.32;6.63;;;;;;;;;;5027787;28;20076;-74
2023/04/24 02:11:57;;;;;;;7.50;6.80;;;;;;;;;;5027835;28;20102;-72
2023/04/24 02:14:23;;;;;;;8.85;7.72;;;;;;;;;;5028344;28;20091;-74
2023/04/24 02:16:49;;;;;;;8.77;7.97;;;;;;;;;;5028455;28;20041;-74
2023/04/24 02:19:15;;;;;;;8.40;7.60;;;;;;;;;;5028701;28;20057;-74
2023/04/24 02:21:42;;;;;;;8.93;8.02;;;;;;;;;;5026899;28;20102;-73
2023/04/24 02:24:07;;;;;;;8.63;7.82;;;;;;;;;;5029076;28;20053;-74
2023/04/24 02:26:34;;;;;;;8.75;7.93;;;;;;;;;;5010526;28;20496;-74
2023/04/24 02:29:00;;;;;;;9.40;8.45;;;;;;;;;;5043599;28;20056;-74
2023/04/24 02:31:26;;;;;;;11.02;9.25;;;;;;;;;;5026091;28;20045;-74
2023/04/24 02:33:53;;;;;;;8.55;7.75;;;;;;;;;;5002685;28;20048;-74
2023/04/24 02:36:19;;;;;;;9.20;8.40;;;;;;;;;;5027630;28;20051;-74
2023/04/24 02:38:45;;;;;;;10.30;9.20;;;;;;;;;;5028360;28;20143;-74
2023/04/24 02:41:11;;;;;;;9.40;8.60;;;;;;;;;;5011574;28;20049;-73
2023/04/24 02:43:37;;;;;;;10.05;9.05;;;;;;;;;;5011389;28;20057;-74
2023/04/24 02:46:03;;;;;;;11.80;10.70;;;;;;;;;;5046104;28;20107;-74
2023/04/24 02:48:29;;;;;;;12.07;10.98;;;;;;;;;;5027421;28;20140;-74
2023/04/24 02:50:55;;;;;;;12.40;11.23;;;;;;;;;;5027651;28;20501;-74
2023/04/24 02:53:21;;;;;;;11.45;10.50;;;;;;;;;;5045990;28;20056;-73
2023/04/24 02:55:47;;;;;;;13.02;10.55;;;;;;;;;;5045471;28;20037;-73
2023/04/24 02:58:13;;;;;;;13.15;11.95;;;;;;;;;;5028282;28;20043;-74
2023/04/24 03:00:39;;;;;;;10.60;9.60;;;;;;;;;;5043849;28;20036;-74
2023/04/24 03:03:06;;;;;;;10.70;9.80;;;;;;;;;;5011572;28;20045;-73
2023/04/24 03:05:32;;;;;;;10.77;9.88;;;;;;;;;;5042606;28;20041;-74
2023/04/24 03:07:58;;;;;;;9.60;8.88;;;;;;;;;;5045622;28;20029;-74
2023/04/24 03:10:24;;;;;;;9.55;8.75;;;;;;;;;;5026888;28;20053;-74
2023/04/24 03:12:50;;;;;;;9.88;8.98;;;;;;;;;;5028265;28;20127;-73
2023/04/24 03:15:16;;;;;;;9.20;8.50;;;;;;;;;;5027008;28;20078;-73
2023/04/24 03:17:42;;;;;;;9.48;8.68;;;;;;;;;;5027021;28;20091;-74
2023/04/24 03:20:09;;;;;;;9.25;8.55;;;;;;;;;;5044509;28;20072;-75
2023/04/24 03:22:35;;;;;;;10.27;9.27;;;;;;;;;;5026170;28;20064;-73
2023/04/24 03:25:01;;;;;;;7.35;6.75;;;;;;;;;;5024675;28;20111;-73
2023/04/24 03:27:27;;;;;;;9.93;9.13;;;;;;;;;;5023874;28;20493;-74
2023/04/24 03:29:55;;;;;;;7.60;6.93;;;;;;;;;;5040032;28;20049;-73
2023/04/24 03:32:22;;;;;;;8.48;7.78;;;;;;;;;;5023506;28;20063;-74
2023/04/24 03:34:48;;;;;;;8.57;7.88;;;;;;;;;;5023407;28;20124;-75
2023/04/24 03:37:14;;;;;;;8.75;6.88;;;;;;;;;;5023677;28;20065;-74
2023/04/24 03:39:40;;;;;;;6.80;6.30;;;;;;;;;;5023490;28;20042;-74
2023/04/24 03:42:08;;;;;;;6.70;6.20;;;;;;;;;;5039883;28;20825;-74
2023/04/24 03:44:34;;;;;;;7.57;5.93;;;;;;;;;;5039392;28;20670;-73
2023/04/24 03:47:00;;;;;;;7.38;6.63;;;;;;;;;;5040187;28;20159;-73
2023/04/24 03:49:26;;;;;;;7.25;6.45;;;;;;;;;;5022597;28;20041;-74
2023/04/24 03:51:52;;;;;;;6.45;5.93;;;;;;;;;;5025061;28;20393;-74
2023/04/24 03:54:18;;;;;;;8.05;7.35;;;;;;;;;;5013172;28;20514;-73
2023/04/24 03:56:44;;;;;;;7.75;6.80;;;;;;;;;;5039638;28;20029;-73
2023/04/24 03:59:10;;;;;;;7.35;6.65;;;;;;;;;;5024048;28;20045;-73
2023/04/24 04:01:37;;;;;;;7.85;7.05;;;;;;;;;;5023098;28;20046;-72
2023/04/24 04:04:06;;;;;;;8.02;7.35;;;;;;;;;;5024882;28;20041;-74
2023/04/24 04:06:32;;;;;;;8.25;7.30;;;;;;;;;;5027275;28;20041;-73
2023/04/24 04:08:59;;;;;;;9.00;8.00;;;;;;;;;;5030601;28;20439;-74
2023/04/24 04:11:25;;;;;;;10.07;9.18;;;;;;;;;;5031529;28;20075;-74
2023/04/24 04:13:51;;;;;;;9.68;8.80;;;;;;;;;;5031387;28;20528;-74
2023/04/24 04:16:17;;;;;;;9.50;8.60;;;;;;;;;;5046755;28;20049;-74
2023/04/24 04:18:44;;;;;;;10.48;9.43;;;;;;;;;;5029147;28;20039;-74
2023/04/24 04:21:10;;;;;;;11.25;10.05;;;;;;;;;;5045121;28;20045;-73
2023/04/24 04:23:36;;;;;;;10.13;9.32;;;;;;;;;;5037032;28;20060;-72
2023/04/24 04:26:03;;;;;;;11.27;10.18;;;;;;;;;;5033897;28;20111;-73
2023/04/24 04:28:30;;;;;;;9.73;8.82;;;;;;;;;;5033078;28;20075;-74
2023/04/24 04:30:57;;;;;;;10.63;9.65;;;;;;;;;;5051255;28;20033;-74
2023/04/24 04:33:23;;;;;;;10.35;9.35;;;;;;;;;;5038897;28;20057;-75
2023/04/24 04:35:51;;;;;;;9.60;8.60;;;;;;;;;;5032067;28;20421;-73
2023/04/24 04:38:18;;;;;;;8.85;7.95;;;;;;;;;;5017660;28;20036;-74
2023/04/24 04:40:44;;;;;;;8.88;8.07;;;;;;;;;;5031455;28;20045;-73
2023/04/24 04:43:10;;;;;;;7.78;7.07;;;;;;;;;;5017633;28;20052;-73
2023/04/24 04:45:38;;;;;;;7.20;6.60;;;;;;;;;;5050374;28;20041;-73
2023/04/24 04:48:07;;;;;;;6.32;5.43;;;;;;;;;;5033762;28;20052;-73
2023/04/24 04:50:33;;;;;;;6.15;5.38;;;;;;;;;;5030609;28;20045;-73
2023/04/24 04:52:59;;;;;;;5.55;5.15;;;;;;;;;;5033032;28;20045;-73
2023/04/24 04:55:25;;;;;;;5.25;4.75;;;;;;;;;;5034000;28;20095;-73
2023/04/24 04:57:52;;;;;;;4.65;4.25;;;;;;;;;;5050585;28;20059;-75
2023/04/24 05:00:18;;;;;;;4.50;4.10;;;;;;;;;;5033174;28;20052;-72
2023/04/24 05:02:44;;;;;;;4.35;3.95;;;;;;;;;;5033013;28;20051;-73
2023/04/24 05:05:10;;;;;;;5.22;4.60;;;;;;;;;;5050654;28;20033;-74
2023/04/24 05:07:36;;;;;;;4.10;3.70;;;;;;;;;;5050406;28;20049;-72
2023/04/24 05:10:02;;;;;;;4.10;3.70;;;;;;;;;;5051276;28;20531;-73
2023/04/24 05:12:28;;;;;;;2.70;2.50;;;;;;;;;;5033652;28;20049;-73
2023/04/24 05:14:54;;;;;;;3.33;3.03;;;;;;;;;;5050098;28;20040;-73
2023/04/24 05:17:20;;;;;;;6.72;2.92;;;;;;;;;;5030725;28;20045;-74
2023/04/24 05:19:46;;;;;;;4.82;2.67;;;;;;;;;;5028512;28;20087;-73
2023/04/24 05:22:12;;;;;;;3.75;3.20;;;;;;;;;;5029542;28;20449;-73
2023/04/24 05:24:38;;;;;;;4.57;3.60;;;;;;;;;;5029463;28;20087;-74
2023/04/24 05:27:04;;;;;;;6.43;3.72;;;;;;;;;;5030235;28;20532;-74
2023/04/24 05:29:31;;;;;;;4.60;3.80;;;;;;;;;;5046423;28;20033;-73
2023/04/24 05:31:57;;;;;;;3.95;3.65;;;;;;;;;;5028575;28;20131;-74
2023/04/24 05:34:23;;;;;;;5.20;4.70;;;;;;;;;;5029392;28;20040;-74
2023/04/24 05:36:50;;;;;;;6.18;5.57;;;;;;;;;;5028512;28;20087;-73
2023/04/24 05:39:16;;;;;;;5.97;5.45;;;;;;;;;;5029504;28;20096;-74
2023/04/24 05:41:42;;;;;;;6.75;6.00;;;;;;;;;;5028225;28;20033;-73
2023/04/24 05:44:08;;;;;;;7.28;6.10;;;;;;;;;;5047780;28;20047;-74
2023/04/24 05:46:35;;;;;;;6.93;6.03;;;;;;;;;;5046858;28;20041;-73
2023/04/24 05:49:01;;;;;;;6.32;5.72;;;;;;;;;;5028913;28;20060;-73
2023/04/24 05:51:27;;;;;;;6.13;5.53;;;;;;;;;;5029277;28;20095;-73
2023/04/24 05:53:53;;;;;;;5.63;5.03;;;;;;;;;;5028980;28;20139;-74
2023/04/24 05:56:20;;;;;;;5.80;5.30;;;;;;;;;;5029806;28;20551;-74
2023/04/24 05:58:46;;;;;;;4.40;4.00;;;;;;;;;;5027814;28;20080;-74
2023/04/24 06:01:12;;;;;;;4.43;4.03;;;;;;;;;;5029277;28;20072;-74
2023/04/24 06:03:39;;;;;;;4.38;3.97;;;;;;;;;;5046105;28;20089;-74
2023/04/24 06:06:06;;;;;;;3.80;3.50;;;;;;;;;;5028548;28;20341;-74
2023/04/24 06:08:32;;;;;;;3.70;3.38;;;;;;;;;;5028531;28;20080;-74
2023/04/24 06:10:58;;;;;;;4.15;3.75;;;;;;;;;;5028763;28;20049;-74
2023/04/24 06:13:24;;;;;;;4.50;4.10;;;;;;;;;;5029152;28;20052;-74
2023/04/24 06:15:50;;;;;;;5.32;3.80;;;;;;;;;;5045214;28;20049;-74
2023/04/24 06:18:17;;;;;;;3.92;3.60;;;;;;;;;;5028686;28;20451;-74
2023/04/24 06:20:43;;;;;;;4.60;4.15;;;;;;;;;;5025997;28;20155;-73
2023/04/24 06:23:09;;;;;;;3.75;3.45;;;;;;;;;;5029235;28;20049;-74
2023/04/24 06:25:35;;;;;;;3.70;3.40;;;;;;;;;;5028492;28;20092;-74
2023/04/24 06:28:02;;;;;;;4.10;3.70;;;;;;;;;;5027251;28;20079;-73
2023/04/24 06:30:28;;;;;;;4.63;4.22;;;;;;;;;;5028323;28;20045;-74
2023/04/24 06:32:54;;;;;;;4.43;4.03;;;;;;;;;;5027436;28;20590;-73
2023/04/24 06:35:20;;;;;;;4.95;4.45;;;;;;;;;;5028036;28;20049;-74
2023/04/24 06:37:46;;;;;;;5.78;5.00;;;;;;;;;;5044740;28;20488;-73
2023/04/24 06:40:12;;;;;;;4.82;4.32;;;;;;;;;;5027549;28;20123;-74
2023/04/24 06:42:38;;;;;;;6.97;5.53;;;;;;;;;;5026952;28;20053;-73
2023/04/24 06:45:05;;;;;;;4.00;3.47;;;;;;;;;;5029055;28;20044;-75
2023/04/24 06:47:31;;;;;;;4.20;3.08;;;;;;;;;;5027923;28;20579;-74
2023/04/24 06:49:57;;;;;;;3.78;2.95;;;;;;;;;;5045775;28;20049;-74
2023/04/24 06:52:23;;;;;;;4.13;3.47;;;;;;;;;;5028107;28;20060;-74
2023/04/24 06:54:49;;;;;;;4.35;3.58;;;;;;;;;;5045935;28;20386;-74
2023/04/24 06:57:18;;;;;;;5.10;3.83;;;;;;;;;;5028339;28;20049;-74
2023/04/24 06:59:44;;;;;;;;;;;;;;;;;;5027306;28;20048;-74
2023/04/24 07:02:10;;;;;;;8.15;6.05;;;;;;;;;;5045039;28;19925;-75
2023/04/24 07:04:36;;;;;;;10.77;6.40;;;;;;;;;;5027081;28;20084;-75
2023/04/24 07:07:02;;;;;;;11.13;6.78;;;;;;;;;;5026517;28;20036;-73
2023/04/24 07:09:28;;;;;;;10.50;6.45;;;;;;;;;;5027866;28;20100;-75
2023/04/24 07:11:56;;;;;;;8.15;6.38;;;;;;;;;;5026424;28;20040;-75
2023/04/24 07:14:23;;;;;;;12.07;7.68;;;;;;;;;;5028371;28;20259;-75
2023/04/24 07:16:49;;;;;;;12.30;6.47;;;;;;;;;;5026581;28;20045;-74
2023/04/24 07:19:16;;;;;;;9.25;6.75;;;;;;;;;;5044805;28;20481;-75
2023/04/24 07:21:41;;;;;;;7.93;6.55;;;;;;;;;;5026539;28;20057;-74
2023/04/24 07:24:10;;;;;;;13.25;7.60;;;;;;;;;;5044954;28;20535;-74
2023/04/24 07:26:37;;;;;;;12.70;8.20;;;;;;;;;;5027649;28;20109;-74
2023/04/24 07:29:03;;;;;;;11.73;6.55;;;;;;;;;;5026053;28;20087;-74
2023/04/24 07:31:29;;;;;;;8.70;5.97;;;;;;;;;;5046235;28;20064;-73
2023/04/24 07:33:57;;;;;;;7.18;5.28;;;;;;;;;;5043725;28;20090;-75
2023/04/24 07:36:24;;;;;;;6.78;5.60;;;;;;;;;;5044835;28;20107;-75
2023/04/24 07:38:50;;;;;;;7.30;4.53;;;;;;;;;;5025706;28;20045;-74
2023/04/24 07:41:16;;;;;;;6.93;4.00;;;;;;;;;;5027559;28;20053;-75
2023/04/24 07:43:42;;;;;;;6.13;3.22;;;;;;;;;;5026856;28;20049;-74
2023/04/24 07:46:09;;;;;;;3.97;2.53;;;;;;;;;;5026583;28;20083;-74
2023/04/24 07:48:35;;;;;;;7.00;3.13;;;;;;;;;;5027210;28;20760;-74
2023/04/24 07:51:01;;;;;;;6.20;3.10;;;;;;;;;;5043100;28;20044;-74
2023/04/24 07:53:27;;;;;;;5.65;3.17;;;;;;;;;;5026909;28;20118;-73
2023/04/24 07:55:55;;;;;;;6.20;3.58;;;;;;;;;;5026387;28;20055;-74
2023/04/24 07:58:21;;;;;;;8.00;4.05;;;;;;;;;;5027035;28;20041;-74
2023/04/24 08:00:47;;;;;;;8.50;3.90;;;;;;;;;;5026880;28;20041;-74
2023/04/24 08:03:13;;;;;;;6.63;2.85;;;;;;;;;;5026856;28;20033;-73
2023/04/24 08:05:39;;;;;;;5.53;3.00;;;;;;;;;;5044295;28;20556;-74
2023/04/24 08:08:05;;;;;;;8.82;3.30;;;;;;;;;;5026033;28;20080;-73
2023/04/24 08:10:31;;;;;;;5.78;3.05;;;;;;;;;;5027299;28;20072;-74
2023/04/24 08:12:57;;;;;;;10.30;3.38;;;;;;;;;;5043693;28;20041;-74
2023/04/24 08:15:23;;;;;;;6.40;3.88;;;;;;;;;;5026665;28;20415;-74
2023/04/24 08:17:50;;;;;;;7.03;3.58;;;;;;;;;;5043992;28;20034;-74
2023/04/24 08:20:16;;;;;;;7.20;3.70;;;;;;;;;;5025807;28;20430;-75
2023/04/24 08:22:43;;;;;;;6.25;3.40;;;;;;;;;;5026613;28;20525;-74
2023/04/24 08:25:09;;;;;;;8.10;3.53;;;;;;;;;;5026192;28;20057;-73
2023/04/24 08:27:36;;;;;;;10.73;4.43;;;;;;;;;;5026441;28;20578;-75
2023/04/24 08:30:03;;;;;;;9.35;5.05;;;;;;;;;;5026274;28;20052;-74
2023/04/24 08:32:29;;;;;;;13.02;7.15;;;;;;;;;;5045202;28;20131;-74
2023/04/24 08:34:56;;;;;;;14.88;8.70;;;;;;;;;;5043545;28;20475;-74
2023/04/24 08:37:22;;;;;;;18.45;10.30;;;;;;;;;;5042688;28;20079;-73
2023/04/24 08:39:48;;;;;;;20.08;11.80;;;;;;;;;;5026149;28;20293;-74
2023/04/24 08:42:15;;;;;;;27.45;13.45;;;;;;;;;;5026869;28;20037;-74
2023/04/24 08:44:41;;;;;;;29.50;14.68;;;;;;;;;;5045569;28;20041;-74
2023/04/24 08:47:08;;;;;;;29.40;16.00;;;;;;;;;;5025822;28;20049;-73
2023/04/24 08:49:36;;;;;;;29.58;15.82;;;;;;;;;;5026512;28;20111;-74
2023/04/24 08:52:02;;;;;;;33.05;19.42;;;;;;;;;;5026504;28;20056;-74
2023/04/24 08:54:29;;;;;;;30.83;18.83;;;;;;;;;;5031319;28;20053;-73
2023/04/24 08:56:56;;;;;;;33.40;18.52;;;;;;;;;;5029449;28;20044;-74
2023/04/24 08:59:22;;;;;;;33.40;18.67;;;;;;;;;;5030278;28;20073;-74
2023/04/24 09:01:49;;;;;;;28.38;17.63;;;;;;;;;;5030679;28;20040;-74
2023/04/24 09:04:17;;;;;;;31.65;19.40;;;;;;;;;;5029665;28;20416;-74
2023/04/24 09:06:44;;;;;;;34.53;19.45;;;;;;;;;;5029812;28;20502;-75
2023/04/24 09:09:11;;;;;;;33.90;17.15;;;;;;;;;;5028924;28;20044;-74
2023/04/24 09:11:37;;;;;;;27.30;17.02;;;;;;;;;;5030595;28;20115;-73
2023/04/24 09:14:04;;;;;;;29.98;17.50;;;;;;;;;;5029669;28;20057;-74
2023/04/24 09:16:30;;;;;;;27.30;15.98;;;;;;;;;;5029973;28;20041;-74
2023/04/24 09:18:56;;;;;;;29.67;16.65;;;;;;;;;;5029803;28;20049;-74
2023/04/24 09:21:23;;;;;;;29.33;16.55;;;;;;;;;;5044941;28;20059;-74
2023/04/24 09:23:59;;;;;;;36.67;18.83;;;;;;;;;;5048394;28;20057;-74
2023/04/24 09:26:25;;;;;;;30.08;17.73;;;;;;;;;;5016564;28;20065;-73
2023/04/24 09:28:51;;;;;;;31.67;16.40;;;;;;;;;;5047385;28;20436;-74
2023/04/24 09:31:21;;;;;;;29.10;17.42;;;;;;;;;;5045901;28;20590;-75
2023/04/24 09:33:57;;;;;;;30.00;17.75;;;;;;;;;;5047839;28;20370;-75
2023/04/24 09:36:33;;;;;;;28.23;17.35;;;;;;;;;;5029218;28;20504;-74
2023/04/24 09:39:00;;;;;;;31.90;18.92;;;;;;;;;;5028093;28;20051;-74
2023/04/24 09:41:27;;;;;;;28.23;16.77;;;;;;;;;;5030014;28;20048;-74
2023/04/24 09:43:54;;;;;;;24.30;16.13;;;;;;;;;;5028121;28;20052;-74
2023/04/24 09:46:23;;;;;;;26.65;16.23;;;;;;;;;;5029830;28;20484;-74
2023/04/24 09:48:49;;;;;;;;;;;;;;;;;;5047055;28;20163;-74
2023/04/24 09:51:15;;;;;;;25.42;13.00;;;;;;;;;;5046572;28;20471;-74
2023/04/24 09:53:46;;;;;;;19.15;12.85;;;;;;;;;;5029521;28;20052;-73
2023/04/24 09:56:12;;;;;;;20.08;12.55;;;;;;;;;;5047074;28;20610;-73
2023/04/24 09:58:39;;;;;;;21.50;13.68;;;;;;;;;;5029659;28;20040;-73
2023/04/24 10:01:05;;;;;;;16.98;11.18;;;;;;;;;;5027379;28;20056;-75
2023/04/24 10:03:32;;;;;;;17.95;11.80;;;;;;;;;;5012022;28;20052;-74
2023/04/24 10:06:08;;;;;;;19.73;11.57;;;;;;;;;;5045636;28;20040;-75
2023/04/24 10:08:35;;;;;;;19.23;12.73;;;;;;;;;;5028597;28;20649;-75
2023/04/24 10:11:01;;;;;;;23.88;12.48;;;;;;;;;;5029062;28;20060;-74
2023/04/24 10:13:28;;;;;;;21.20;12.20;;;;;;;;;;5028040;28;20053;-75
2023/04/24 10:15:54;;;;;;;20.75;11.05;;;;;;;;;;5046552;28;20037;-74
2023/04/24 10:18:21;;;;;;;18.95;9.15;;;;;;;;;;5033353;28;20130;-74
2023/04/24 10:20:47;;;;;;;20.00;9.52;;;;;;;;;;5027114;28;20049;-74
2023/04/24 10:23:13;;;;;;;21.30;8.60;;;;;;;;;;5011283;28;20045;-73
2023/04/24 10:25:39;;;;;;;20.17;7.90;;;;;;;;;;5029379;28;20083;-74
2023/04/24 10:28:06;;;;;;;17.48;8.07;;;;;;;;;;5011596;28;20041;-74
2023/04/24 10:30:34;;;;;;;18.00;9.13;;;;;;;;;;5027001;28;20106;-74
2023/04/24 10:33:00;;;;;;;;;;;;;;;;;;5047662;28;20052;-74
2023/04/24 10:35:27;;;;;;;18.58;8.55;;;;;;;;;;5026553;28;19931;-74
2023/04/24 10:38:01;;;;;;;13.10;6.65;;;;;;;;;;5046687;28;20051;-73
2023/04/24 10:40:30;;;;;;;17.05;5.75;;;;;;;;;;5031273;28;20195;-74
2023/04/24 10:42:56;;;;;;;18.70;7.55;;;;;;;;;;5028132;28;20067;-74
2023/04/24 10:45:23;;;;;;;13.52;5.00;;;;;;;;;;5027971;28;20053;-74
2023/04/24 10:48:01;;;;;;;14.63;5.30;;;;;;;;;;5027682;28;20049;-74
2023/04/24 10:50:28;;;;;;;11.93;4.70;;;;;;;;;;5027443;28;20045;-74
2023/04/24 10:52:55;;;;;;;12.80;5.03;;;;;;;;;;5027743;28;20072;-74
2023/04/24 10:55:41;;;;;;;13.48;4.30;;;;;;;;;;5028895;28;20052;-74
2023/04/24 10:58:07;;;;;;;11.38;4.18;;;;;;;;;;5027223;28;20045;-74
2023/04/24 11:00:33;;;;;;;10.13;4.25;;;;;;;;;;5027104;28;20049;-74
2023/04/24 11:02:59;;;;;;;12.25;4.75;;;;;;;;;;5027787;28;20428;-74
2023/04/24 11:05:45;;;;;;;9.40;4.15;;;;;;;;;;5025832;28;20091;-75
2023/04/24 11:08:12;;;;;;;14.38;4.22;;;;;;;;;;5010963;28;20056;-74
2023/04/24 11:10:39;;;;;;;11.43;4.53;;;;;;;;;;5026050;28;20099;-74
2023/04/24 11:13:05;;;;;;;6.90;3.20;;;;;;;;;;5045398;28;20068;-74
2023/04/24 11:15:31;;;;;;;5.78;2.83;;;;;;;;;;5044716;28;20052;-73
2023/04/24 11:17:57;;;;;;;6.45;3.03;;;;;;;;;;5045878;28;20491;-74
2023/04/24 11:20:26;;;;;;;9.80;3.25;;;;;;;;;;5027801;28;20045;-75
2023/04/24 11:22:54;;;;;;;9.00;3.00;;;;;;;;;;5026250;28;20040;-75
2023/04/24 11:25:22;;;;;;;10.63;3.25;;;;;;;;;;5028590;28;20064;-75
2023/04/24 11:27:49;;;;;;;8.82;3.10;;;;;;;;;;5026248;28;20562;-75
2023/04/24 11:30:19;;;;;;;9.20;2.83;;;;;;;;;;5045092;28;20419;-74
2023/04/24 11:32:49;;;;;;;8.65;2.55;;;;;;;;;;5026593;28;20091;-75
2023/04/24 11:35:16;;;;;;;7.15;2.97;;;;;;;;;;5026292;28;20041;-74
2023/04/24 11:37:43;;;;;;;8.45;2.95;;;;;;;;;;5027452;28;20583;-75
2023/04/24 11:40:11;;;;;;;8.20;2.60;;;;;;;;;;5027214;28;20120;-75
2023/04/24 11:42:37;;;;;;;8.15;2.58;;;;;;;;;;5027850;28;20085;-75
2023/04/24 11:45:24;;;;;;;8.40;2.72;;;;;;;;;;5026996;28;20045;-75
2023/04/24 11:47:50;;;;;;;10.15;2.60;;;;;;;;;;5016578;28;20053;-75
2023/04/24 11:50:17;;;;;;;12.82;2.53;;;;;;;;;;5042443;28;20045;-75
2023/04/24 11:52:44;;;;;;;10.98;2.35;;;;;;;;;;5027064;28;20083;-75
2023/04/24 11:55:16;;;;;;;10.00;2.70;;;;;;;;;;5028503;28;20057;-75
2023/04/24 11:57:46;;;;;;;9.23;2.50;;;;;;;;;;5044559;28;20091;-74
2023/04/24 12:00:20;;;;;;;10.05;2.55;;;;;;;;;;5026954;28;20072;-74
2023/04/24 12:02:46;;;;;;;9.25;1.95;;;;;;;;;;5025667;28;20057;-74
2023/04/24 12:05:28;;;;;;;8.00;3.05;;;;;;;;;;5026648;28;20049;-74
2023/04/24 12:07:54;;;;;;;10.98;2.95;;;;;;;;;;5027229;28;20045;-75
2023/04/24 12:10:21;;;;;;;11.57;3.17;;;;;;;;;;5026397;28;20538;-74
2023/04/24 12:12:50;;;;;;;11.18;2.88;;;;;;;;;;5027116;28;20052;-74
2023/04/24 12:15:16;;;;;;;12.35;2.50;;;;;;;;;;5043625;28;20091;-76
2023/04/24 12:17:43;;;;;;;8.80;2.22;;;;;;;;;;5026533;28;20183;-74
2023/04/24 12:20:09;;;;;;;14.98;2.53;;;;;;;;;;5025547;28;20049;-75
2023/04/24 12:22:48;;;;;;;14.13;2.90;;;;;;;;;;5026515;28;20093;-73
2023/04/24 12:25:18;;;;;;;9.90;2.17;;;;;;;;;;5026853;28;20508;-74
2023/04/24 12:27:52;;;;;;;10.05;3.00;;;;;;;;;;5046071;28;20594;-74
2023/04/24 12:30:18;;;;;;;6.60;2.60;;;;;;;;;;5030233;28;20049;-75
2023/04/24 12:32:46;;;;;;;14.30;2.50;;;;;;;;;;5047156;28;20106;-75
2023/04/24 12:35:12;;;;;;;9.53;2.83;;;;;;;;;;5048638;28;20043;-73
2023/04/24 12:37:39;;;;;;;11.23;2.47;;;;;;;;;;5029362;28;20717;-74
2023/04/24 12:40:09;;;;;;;10.20;2.63;;;;;;;;;;5048736;28;20049;-74
2023/04/24 12:42:36;;;;;;;7.63;2.50;;;;;;;;;;5048584;28;20432;-75
2023/04/24 12:45:06;;;;;;;8.73;2.55;;;;;;;;;;5048390;28;20073;-74
2023/04/24 12:47:33;;;;;;;10.68;2.30;;;;;;;;;;5048218;28;20156;-73
2023/04/24 12:49:59;;;;;;;8.77;2.22;;;;;;;;;;5029281;28;20103;-74
2023/04/24 12:52:26;;;;;;;7.03;1.83;;;;;;;;;;5030038;28;20049;-74
2023/04/24 12:54:56;;;;;;;10.18;2.20;;;;;;;;;;5048353;28;20099;-73
2023/04/24 12:57:25;;;;;;;9.50;2.47;;;;;;;;;;5030416;28;20045;-72
2023/04/24 12:59:55;;;;;;;9.15;3.20;;;;;;;;;;5047338;28;20052;-74
2023/04/24 13:02:22;;;;;;;9.10;2.58;;;;;;;;;;5029346;28;20048;-73
2023/04/24 13:04:48;;;;;;;12.48;2.30;;;;;;;;;;5029996;28;20053;-73
2023/04/24 13:07:14;;;;;;;5.78;2.00;;;;;;;;;;5029400;28;20045;-74
2023/04/24 13:09:41;;;;;;;11.20;2.42;;;;;;;;;;5031078;28;20422;-73
2023/04/24 13:12:07;;;;;;;10.10;2.10;;;;;;;;;;5047198;28;20049;-74
2023/04/24 13:14:33;;;;;;;9.18;1.80;;;;;;;;;;5030820;28;20052;-73
2023/04/24 13:17:00;;;;;;;5.40;1.92;;;;;;;;;;5048085;28;20052;-74
2023/04/24 13:19:26;;;;;;;8.70;1.88;;;;;;;;;;5028648;28;20098;-75
2023/04/24 13:21:52;;;;;;;7.38;2.03;;;;;;;;;;5029037;28;20041;-75
2023/04/24 13:24:18;;;;;;;14.50;1.98;;;;;;;;;;5028197;28;20538;-73
2023/04/24 13:26:44;;;;;;;6.18;1.83;;;;;;;;;;5030452;28;20139;-72
2023/04/24 13:29:10;;;;;;;5.93;1.40;;;;;;;;;;5028039;28;20515;-73
2023/04/24 13:31:36;;;;;;;5.32;1.83;;;;;;;;;;5029358;28;20076;-74
2023/04/24 13:34:03;;;;;;;8.73;1.80;;;;;;;;;;5027721;28;20111;-74
2023/04/24 13:36:30;;;;;;;8.13;1.60;;;;;;;;;;5047602;28;20049;-72
2023/04/24 13:38:56;;;;;;;7.10;1.48;;;;;;;;;;5028517;28;20057;-73
2023/04/24 13:41:22;;;;;;;7.22;1.60;;;;;;;;;;5047114;28;20072;-75
2023/04/24 13:43:48;;;;;;;5.18;1.60;;;;;;;;;;5046339;28;20040;-73
2023/04/24 13:46:14;;;;;;;8.23;1.80;;;;;;;;;;5029424;28;20041;-74
2023/04/24 13:48:40;;;;;;;11.00;2.17;;;;;;;;;;5047204;28;20543;-73
2023/04/24 13:51:06;;;;;;;6.88;1.50;;;;;;;;;;5026609;28;20040;-74
2023/04/24 13:53:32;;;;;;;8.77;1.85;;;;;;;;;;5029670;28;20049;-73
2023/04/24 13:55:58;;;;;;;5.03;1.38;;;;;;;;;;5028953;28;20041;-73
2023/04/24 13:58:24;;;;;;;8.15;2.10;;;;;;;;;;5028226;28;20126;-73
2023/04/24 14:00:50;;;;;;;8.52;2.10;;;;;;;;;;5028664;28;20072;-72
2023/04/24 14:03:16;;;;;;;6.05;1.77;;;;;;;;;;5028186;28;20037;-73
2023/04/24 14:05:42;;;;;;;3.95;1.17;;;;;;;;;;5028301;28;20095;-74
2023/04/24 14:08:08;;;;;;;4.80;1.33;;;;;;;;;;5027598;28;20071;-73
2023/04/24 14:10:35;;;;;;;5.47;1.70;;;;;;;;;;5028434;28;20056;-73
2023/04/24 14:13:01;;;;;;;1.58;0.82;;;;;;;;;;5028373;28;20061;-74
2023/04/24 14:15:27;;;;;;;7.35;3.22;;;;;;;;;;5028410;28;20047;-73
2023/04/24 14:17:53;;;;;;;4.50;1.33;;;;;;;;;;5028493;28;20718;-73
2023/04/24 14:20:19;;;;;;;6.75;2.15;;;;;;;;;;5026525;28;20082;-74
2023/04/24 14:22:45;;;;;;;5.00;1.92;;;;;;;;;;5029066;28;20068;-75
2023/04/24 14:25:11;;;;;;;4.28;1.50;;;;;;;;;;5028370;28;20053;-73
2023/04/24 14:27:37;;;;;;;5.93;1.52;;;;;;;;;;5028277;28;20029;-73
2023/04/24 14:30:04;;;;;;;6.28;1.48;;;;;;;;;;5026940;28;20148;-75
2023/04/24 14:32:30;;;;;;;8.40;2.78;;;;;;;;;;5028594;28;20037;-74
2023/04/24 14:34:56;;;;;;;10.82;2.67;;;;;;;;;;5027996;28;20049;-75